Time;durP1;ratioP1;P1;durP2;ratioP2;P2;SDS_P1;SDS_P2;PMS_P1;PMS_P2;Temp;Humidity;BMP_temperature;BMP_pressure;BME280_temperature;BME280_humidity;BME280_pressure;Samples;Min_cycle;Max_cycle;Signal;HPM_P1;HPM_P2
2022/02/15 00:01:11;;;;;;;20.90;19.88;;;8.50;74.20;;;;;;4950800;28;20470;-86
2022/02/15 00:03:37;;;;;;;19.67;18.77;;;8.40;74.10;;;;;;4954010;29;20036;-86
2022/02/15 00:06:03;;;;;;;20.08;19.17;;;8.40;74.20;;;;;;4938045;29;20031;-86
2022/02/15 00:08:29;;;;;;;20.27;19.38;;;8.40;74.20;;;;;;4953976;28;20042;-86
2022/02/15 00:10:56;;;;;;;19.98;19.08;;;8.40;74.30;;;;;;4950355;29;20039;-86
2022/02/15 00:13:22;;;;;;;19.70;18.80;;;8.40;74.30;;;;;;4949771;28;20047;-84
2022/02/15 00:15:48;;;;;;;19.48;18.58;;;8.40;74.40;;;;;;4952786;28;20506;-86
2022/02/15 00:18:14;;;;;;;19.73;18.83;;;8.30;74.30;;;;;;4953665;29;20043;-86
2022/02/15 00:20:41;;;;;;;19.08;18.17;;;8.30;74.40;;;;;;4951915;29;20034;-86
2022/02/15 00:23:07;;;;;;;19.75;18.85;;;8.30;74.40;;;;;;4952897;28;20043;-86
2022/02/15 00:25:33;;;;;;;20.30;19.30;;;8.30;74.40;;;;;;4952732;29;20384;-86
2022/02/15 00:27:59;;;;;;;19.75;18.85;;;8.20;74.40;;;;;;4954522;29;20042;-86
2022/02/15 00:30:26;;;;;;;19.40;18.50;;;8.20;74.40;;;;;;4949290;28;20510;-86
2022/02/15 00:32:52;;;;;;;19.05;18.15;;;8.20;74.40;;;;;;4952429;29;20031;-86
2022/02/15 00:35:18;;;;;;;20.35;19.45;;;8.20;74.50;;;;;;4952210;29;20096;-86
2022/02/15 00:37:44;;;;;;;19.58;18.67;;;8.20;74.40;;;;;;4952616;29;20035;-85
2022/02/15 00:40:11;;;;;;;20.48;19.50;;;8.20;74.40;;;;;;4953764;28;20375;-86
2022/02/15 00:42:38;;;;;;;20.08;19.17;;;8.20;74.40;;;;;;4952076;28;20031;-86
2022/02/15 00:45:04;;;;;;;20.00;19.10;;;8.20;74.30;;;;;;4939297;28;20031;-86
2022/02/15 00:47:30;;;;;;;20.10;19.20;;;8.20;74.40;;;;;;4952117;29;20019;-86
2022/02/15 00:49:56;;;;;;;20.95;19.95;;;8.20;74.40;;;;;;4950390;28;20046;-86
2022/02/15 00:52:23;;;;;;;21.02;20.02;;;8.20;74.50;;;;;;4953880;28;20031;-86
2022/02/15 00:54:49;;;;;;;21.38;20.30;;;8.10;74.50;;;;;;4952543;28;20039;-86
2022/02/15 00:57:16;;;;;;;21.02;20.02;;;8.10;74.60;;;;;;4952955;29;20038;-86
2022/02/15 00:59:44;;;;;;;21.58;20.58;;;8.10;74.60;;;;;;4953431;28;20055;-86
2022/02/15 01:02:10;;;;;;;20.65;19.73;;;8.10;74.60;;;;;;4951414;28;20046;-86
2022/02/15 01:04:36;;;;;;;20.73;19.77;;;8.00;74.50;;;;;;4949489;28;20019;-86
2022/02/15 01:07:03;;;;;;;20.40;19.50;;;8.00;74.60;;;;;;4951486;29;20043;-86
2022/02/15 01:09:29;;;;;;;20.83;19.83;;;8.00;74.70;;;;;;4953626;29;20034;-86
2022/02/15 01:11:55;;;;;;;20.55;19.65;;;8.00;74.70;;;;;;4952356;28;20062;-86
2022/02/15 01:14:21;;;;;;;20.42;19.52;;;7.90;74.70;;;;;;4952819;29;20031;-86
2022/02/15 01:16:47;;;;;;;20.10;19.20;;;7.90;74.80;;;;;;4949099;28;20039;-86
2022/02/15 01:19:14;;;;;;;20.42;19.52;;;7.90;74.80;;;;;;4949015;29;20027;-86
2022/02/15 01:21:40;;;;;;;20.10;19.20;;;7.90;74.80;;;;;;4952449;29;20027;-87
2022/02/15 01:24:06;;;;;;;21.00;19.67;;;7.80;74.70;;;;;;4953990;29;20031;-86
2022/02/15 01:26:32;;;;;;;19.45;18.55;;;7.80;75.50;;;;;;4950175;29;20046;-86
2022/02/15 01:28:58;;;;;;;20.27;19.38;;;7.80;74.80;;;;;;4951087;29;20050;-85
2022/02/15 01:31:24;;;;;;;19.90;19.00;;;7.80;74.90;;;;;;4946133;28;20050;-86
2022/02/15 01:33:50;;;;;;;20.20;19.30;;;7.70;74.90;;;;;;4951250;29;20402;-86
2022/02/15 01:36:16;;;;;;;20.15;19.15;;;7.70;74.80;;;;;;4951628;28;20064;-86
2022/02/15 01:38:43;;;;;;;19.55;18.65;;;7.70;74.80;;;;;;4953425;29;20035;-85
2022/02/15 01:41:09;;;;;;;19.08;18.15;;;7.70;74.80;;;;;;4952566;28;20075;-86
2022/02/15 01:43:39;;;;;;;19.42;18.52;;;7.70;74.80;;;;;;4950606;28;20046;-86
2022/02/15 01:46:07;;;;;;;19.95;19.05;;;7.70;74.80;;;;;;4952534;28;20475;-86
2022/02/15 01:48:36;;;;;;;19.30;18.40;;;7.70;74.90;;;;;;4951196;28;20055;-85
2022/02/15 01:51:03;;;;;;;19.75;18.85;;;7.70;74.90;;;;;;4949046;29;20055;-86
2022/02/15 01:53:29;;;;;;;19.45;18.55;;;7.70;74.90;;;;;;4951968;29;20062;-85
2022/02/15 01:55:56;;;;;;;19.30;18.40;;;7.70;74.90;;;;;;4951243;29;20038;-86
2022/02/15 01:58:22;;;;;;;19.70;18.80;;;7.60;74.80;;;;;;4951884;28;20307;-85
2022/02/15 02:00:49;;;;;;;20.52;19.23;;;7.60;74.90;;;;;;4951918;28;20047;-85
2022/02/15 02:03:15;;;;;;;19.77;18.88;;;7.60;74.90;;;;;;4947379;29;20036;-86
2022/02/15 02:05:50;;;;;;;19.17;18.27;;;7.60;74.90;;;;;;4946539;28;20386;-86
2022/02/15 02:08:21;;;;;;;18.63;17.75;;;7.50;74.90;;;;;;4951897;29;20039;-85
2022/02/15 02:10:47;;;;;;;20.23;19.33;;;7.50;75.00;;;;;;4949376;28;20044;-85
2022/02/15 02:13:14;;;;;;;19.98;18.77;;;7.50;75.00;;;;;;4947379;29;20023;-85
2022/02/15 02:15:40;;;;;;;19.37;18.47;;;7.40;75.00;;;;;;4954203;28;20100;-85
2022/02/15 02:18:06;;;;;;;20.07;19.10;;;7.40;75.10;;;;;;4956340;29;20035;-86
2022/02/15 02:20:32;;;;;;;19.10;18.20;;;7.40;75.10;;;;;;4949353;28;20046;-85
2022/02/15 02:22:58;;;;;;;21.03;20.03;;;7.40;75.20;;;;;;4954499;28;20031;-86
2022/02/15 02:25:24;;;;;;;19.67;18.77;;;7.40;75.10;;;;;;4955986;29;20019;-86
2022/02/15 02:27:50;;;;;;;19.60;18.70;;;7.40;75.10;;;;;;4954471;28;20027;-86
2022/02/15 02:30:17;;;;;;;20.87;19.87;;;7.30;75.10;;;;;;4953730;28;20055;-85
2022/02/15 02:32:43;;;;;;;20.65;19.67;;;7.30;75.10;;;;;;4938312;29;20031;-85
2022/02/15 02:35:09;;;;;;;20.80;19.80;;;7.30;75.10;;;;;;4950021;28;20039;-86
2022/02/15 02:37:36;;;;;;;20.63;19.67;;;7.30;75.90;;;;;;4956257;29;20043;-86
2022/02/15 02:40:03;;;;;;;20.42;19.42;;;7.30;75.20;;;;;;4953911;28;20442;-86
2022/02/15 02:42:30;;;;;;;20.63;19.63;;;7.30;75.30;;;;;;4939044;28;20047;-86
2022/02/15 02:45:00;;;;;;;21.00;20.00;;;7.30;75.20;;;;;;4955538;28;20035;-86
2022/02/15 02:47:27;;;;;;;21.35;20.15;;;7.20;75.20;;;;;;4954240;28;20038;-86
2022/02/15 02:49:53;;;;;;;20.80;19.80;;;7.20;75.20;;;;;;4950395;28;20035;-86
2022/02/15 02:52:20;;;;;;;20.37;19.37;;;7.20;75.30;;;;;;4944943;28;20039;-85
2022/02/15 02:54:46;;;;;;;19.20;18.30;;;7.10;75.40;;;;;;4954388;29;20031;-85
2022/02/15 02:57:15;;;;;;;19.20;18.30;;;7.10;75.40;;;;;;4952152;28;20054;-86
2022/02/15 02:59:42;;;;;;;20.00;19.10;;;7.10;75.50;;;;;;4955439;29;20393;-86
2022/02/15 03:02:08;;;;;;;19.87;18.53;;;7.00;75.60;;;;;;4953091;28;20410;-86
2022/02/15 03:04:35;;;;;;;20.42;19.50;;;7.00;75.60;;;;;;4950835;28;20054;-86
2022/02/15 03:07:01;;;;;;;19.98;19.08;;;7.00;75.60;;;;;;4946547;28;20040;-86
2022/02/15 03:09:28;;;;;;;20.20;19.20;;;7.00;75.50;;;;;;4948271;28;20023;-86
2022/02/15 03:11:54;;;;;;;20.17;19.27;;;7.00;75.50;;;;;;4953105;29;20039;-86
2022/02/15 03:14:20;;;;;;;19.97;19.07;;;7.00;75.50;;;;;;4951336;29;20478;-86
2022/02/15 03:16:46;;;;;;;19.65;18.75;;;7.00;75.50;;;;;;4947410;28;20040;-86
2022/02/15 03:19:12;;;;;;;20.02;19.02;;;7.00;75.40;;;;;;4950977;29;20027;-86
2022/02/15 03:21:39;;;;;;;21.15;19.55;;;7.00;75.40;;;;;;4949428;29;20034;-86
2022/02/15 03:24:05;;;;;;;19.53;18.63;;;7.00;75.50;;;;;;4953509;29;20027;-86
2022/02/15 03:26:31;;;;;;;18.43;17.60;;;6.90;75.40;;;;;;4949030;28;20403;-86
2022/02/15 03:28:57;;;;;;;18.97;18.07;;;6.90;75.40;;;;;;4949596;29;20051;-86
2022/02/15 03:31:23;;;;;;;21.00;19.90;;;6.90;75.40;;;;;;4949069;28;20043;-85
2022/02/15 03:33:49;;;;;;;20.35;18.52;;;6.90;75.50;;;;;;4948752;28;20039;-86
2022/02/15 03:36:15;;;;;;;19.93;19.00;;;6.90;75.50;;;;;;4944201;28;20043;-86
2022/02/15 03:38:42;;;;;;;19.33;18.43;;;6.90;75.60;;;;;;4953981;29;20402;-86
2022/02/15 03:43:54;;;;;;;18.73;17.83;;;6.80;75.50;;;;;;4936051;29;20050;-86
2022/02/15 03:46:21;;;;;;;19.70;18.80;;;6.80;75.50;;;;;;4954202;28;20039;-86
2022/02/15 03:48:48;;;;;;;20.40;19.50;;;6.80;75.60;;;;;;4941804;28;20054;-86
2022/02/15 03:51:14;;;;;;;19.83;18.93;;;6.80;75.60;;;;;;4952591;29;20054;-86
2022/02/15 03:53:40;;;;;;;20.73;19.63;;;6.70;75.60;;;;;;4954635;29;20042;-86
2022/02/15 03:56:08;;;;;;;19.97;18.87;;;6.70;75.70;;;;;;4952503;29;20042;-85
2022/02/15 03:58:34;;;;;;;19.90;19.00;;;6.70;75.70;;;;;;4953032;29;20062;-86
2022/02/15 04:01:01;;;;;;;19.67;18.67;;;6.70;75.70;;;;;;4953416;28;20062;-86
2022/02/15 04:03:27;;;;;;;19.87;18.97;;;6.70;75.70;;;;;;4951373;29;20039;-86
2022/02/15 04:05:54;;;;;;;19.10;18.20;;;6.70;75.80;;;;;;4939425;29;20063;-86
2022/02/15 04:08:22;;;;;;;19.27;18.37;;;6.70;75.80;;;;;;4951629;29;20055;-86
2022/02/15 04:10:48;;;;;;;19.37;18.47;;;6.70;75.70;;;;;;4950973;28;20498;-86
2022/02/15 04:13:15;;;;;;;18.97;18.07;;;6.70;75.80;;;;;;4952014;28;20046;-86
2022/02/15 04:15:41;;;;;;;18.87;17.97;;;6.60;75.70;;;;;;4954332;28;20064;-86
2022/02/15 04:18:07;;;;;;;20.03;19.00;;;6.60;75.70;;;;;;4953143;29;20042;-86
2022/02/15 04:20:33;;;;;;;18.03;17.23;;;6.60;75.70;;;;;;4949687;29;20031;-86
2022/02/15 04:23:00;;;;;;;18.33;17.47;;;6.60;75.70;;;;;;4953066;28;20043;-86
2022/02/15 04:25:26;;;;;;;18.33;17.53;;;6.60;75.70;;;;;;4953028;29;20027;-86
2022/02/15 04:27:52;;;;;;;17.77;16.97;;;6.60;75.70;;;;;;4951741;29;20046;-86
2022/02/15 04:30:18;;;;;;;17.87;17.07;;;6.60;75.80;;;;;;4950007;28;20418;-86
2022/02/15 04:32:44;;;;;;;18.33;17.50;;;6.60;75.70;;;;;;4951875;29;20043;-86
2022/02/15 04:35:10;;;;;;;18.30;17.50;;;6.60;75.70;;;;;;4953600;28;20031;-86
2022/02/15 04:37:36;;;;;;;18.37;17.57;;;6.50;75.70;;;;;;4948089;29;20399;-85
2022/02/15 04:40:04;;;;;;;18.10;17.30;;;6.60;75.80;;;;;;4951175;28;20047;-86
2022/02/15 04:42:30;;;;;;;18.80;17.73;;;6.60;75.80;;;;;;4953970;28;20028;-86
2022/02/15 04:44:56;;;;;;;18.60;17.77;;;6.60;75.70;;;;;;4954262;28;20039;-86
2022/02/15 04:47:22;;;;;;;17.87;17.07;;;6.60;75.70;;;;;;4949752;28;20062;-85
2022/02/15 04:49:48;;;;;;;18.30;17.50;;;6.60;75.70;;;;;;4942238;28;20036;-85
2022/02/15 04:52:14;;;;;;;18.47;17.60;;;6.60;75.60;;;;;;4949763;28;20050;-85
2022/02/15 04:54:40;;;;;;;19.53;18.63;;;6.70;75.60;;;;;;4944007;29;20031;-85
2022/02/15 04:57:06;;;;;;;18.80;17.90;;;6.70;75.50;;;;;;4937286;29;20043;-85
2022/02/15 04:59:33;;;;;;;18.50;17.70;;;6.70;75.50;;;;;;4952847;28;20035;-84
2022/02/15 05:01:59;;;;;;;19.30;18.40;;;6.70;75.50;;;;;;4953190;28;20043;-83
2022/02/15 05:07:09;;;;;;;18.47;17.67;;;6.70;75.50;;;;;;4945057;28;20501;-83
2022/02/15 05:09:35;;;;;;;18.27;17.47;;;6.70;75.40;;;;;;4952039;28;20043;-84
2022/02/15 05:12:02;;;;;;;18.50;17.67;;;6.70;75.50;;;;;;4952484;28;20490;-83
2022/02/15 05:14:28;;;;;;;18.40;17.60;;;6.70;75.50;;;;;;4953408;28;20483;-82
2022/02/15 05:16:54;;;;;;;19.10;18.20;;;6.70;75.50;;;;;;4953017;28;20047;-84
2022/02/15 05:19:20;;;;;;;19.33;18.43;;;6.70;75.60;;;;;;4951934;28;20485;-84
2022/02/15 05:21:46;;;;;;;18.23;17.43;;;6.70;75.50;;;;;;4952234;29;20036;-83
2022/02/15 05:24:12;;;;;;;18.43;17.53;;;6.70;75.60;;;;;;4952641;29;20070;-83
2022/02/15 05:26:38;;;;;;;20.80;18.80;;;6.70;75.60;;;;;;4950612;29;20031;-83
2022/02/15 05:29:04;;;;;;;19.00;18.10;;;6.70;75.60;;;;;;4947765;28;20102;-83
2022/02/15 05:31:30;;;;;;;18.10;17.30;;;6.70;75.60;;;;;;4951688;28;20486;-83
2022/02/15 05:33:56;;;;;;;19.10;18.20;;;6.70;75.60;;;;;;4951687;29;20050;-83
2022/02/15 05:36:22;;;;;;;18.97;18.07;;;6.70;75.60;;;;;;4953266;29;20068;-83
2022/02/15 05:38:49;;;;;;;19.17;18.27;;;6.70;75.60;;;;;;4953141;29;20428;-83
2022/02/15 05:41:15;;;;;;;17.60;16.80;;;6.70;75.60;;;;;;4942675;29;20487;-84
2022/02/15 05:43:41;;;;;;;18.53;17.67;;;6.70;75.70;;;;;;4945624;29;20027;-83
2022/02/15 05:46:07;;;;;;;18.37;17.47;;;6.70;75.70;;;;;;4952641;28;20039;-82
2022/02/15 05:48:33;;;;;;;18.33;17.43;;;6.60;75.70;;;;;;4952659;29;20039;-82
2022/02/15 05:50:59;;;;;;;18.70;17.80;;;6.60;75.70;;;;;;4956004;28;20031;-84
2022/02/15 05:53:29;;;;;;;17.63;16.83;;;6.60;75.70;;;;;;4956747;29;20058;-83
2022/02/15 05:55:58;;;;;;;17.60;16.60;;;6.60;75.80;;;;;;4945402;29;20042;-82
2022/02/15 05:58:29;;;;;;;18.30;17.50;;;6.60;75.80;;;;;;4945636;29;20383;-83
2022/02/15 06:00:56;;;;;;;18.67;17.80;;;6.60;75.80;;;;;;4956333;28;20479;-83
2022/02/15 06:06:07;;;;;;;18.60;17.70;;;6.60;75.80;;;;;;4961216;28;20046;-82
2022/02/15 06:08:34;;;;;;;18.03;17.23;;;6.60;75.90;;;;;;4956697;29;20039;-82
2022/02/15 06:11:00;;;;;;;18.83;17.93;;;6.60;75.80;;;;;;4950862;28;20035;-83
2022/02/15 06:13:27;;;;;;;18.47;17.63;;;6.60;75.90;;;;;;4951423;29;20510;-81
2022/02/15 06:15:53;;;;;;;19.17;18.27;;;6.60;75.90;;;;;;4956529;28;20040;-82
2022/02/15 06:18:19;;;;;;;19.00;18.10;;;6.60;75.90;;;;;;4954727;29;20062;-84
2022/02/15 06:20:45;;;;;;;18.90;18.00;;;6.60;75.90;;;;;;4954959;29;20035;-85
2022/02/15 06:23:11;;;;;;;19.23;18.33;;;6.60;75.90;;;;;;4955782;28;20050;-84
2022/02/15 06:25:37;;;;;;;18.30;17.47;;;6.60;75.90;;;;;;4952061;29;20394;-84
2022/02/15 06:28:03;;;;;;;19.47;18.57;;;6.60;75.90;;;;;;4956250;28;20032;-84
2022/02/15 06:30:30;;;;;;;17.30;16.50;;;6.60;75.90;;;;;;4955445;28;20066;-84
2022/02/15 06:32:56;;;;;;;18.27;17.47;;;6.60;75.90;;;;;;4956105;29;20058;-84
2022/02/15 06:35:22;;;;;;;18.40;17.60;;;6.60;75.90;;;;;;4955100;29;20038;-84
2022/02/15 06:37:50;;;;;;;17.67;16.87;;;6.60;76.00;;;;;;4955061;29;20393;-84
2022/02/15 06:40:16;;;;;;;18.77;17.87;;;6.60;76.00;;;;;;4950086;28;20086;-85
2022/02/15 06:42:43;;;;;;;18.30;17.50;;;6.60;76.10;;;;;;4956344;29;20039;-82
2022/02/15 06:45:09;;;;;;;18.80;17.63;;;6.70;75.90;;;;;;4954603;28;20055;-85
2022/02/15 06:47:35;;;;;;;17.40;16.60;;;6.70;75.90;;;;;;4953774;29;20051;-84
2022/02/15 06:50:02;;;;;;;18.33;17.43;;;6.70;75.90;;;;;;4952671;28;20039;-85
2022/02/15 06:52:29;;;;;;;18.87;17.97;;;6.70;75.80;;;;;;4954829;28;20058;-84
2022/02/15 06:54:55;;;;;;;18.80;17.90;;;6.70;75.80;;;;;;4955885;29;20346;-85
2022/02/15 06:57:21;;;;;;;18.30;17.50;;;6.70;75.80;;;;;;4954913;29;20042;-85
2022/02/15 06:59:47;;;;;;;18.43;17.53;;;6.70;75.80;;;;;;4954932;29;20035;-85
2022/02/15 07:02:13;;;;;;;18.90;18.00;;;6.80;75.80;;;;;;4954431;28;20048;-93
2022/02/15 07:04:39;;;;;;;19.50;18.60;;;6.80;75.80;;;;;;4957241;29;20034;-92
2022/02/15 07:07:05;;;;;;;19.23;18.10;;;6.80;75.80;;;;;;4947810;28;20043;-86
2022/02/15 07:09:31;;;;;;;18.33;17.50;;;6.80;75.80;;;;;;4955552;29;20031;-86
2022/02/15 07:11:58;;;;;;;18.27;17.47;;;6.80;75.80;;;;;;4955543;28;20403;-86
2022/02/15 07:14:24;;;;;;;18.53;17.70;;;6.80;75.70;;;;;;4955607;29;20043;-85
2022/02/15 07:16:50;;;;;;;18.60;17.75;;;6.90;75.80;;;;;;4954842;28;20046;-92
2022/02/15 07:19:16;;;;;;;19.17;17.67;;;6.90;75.80;;;;;;4942643;28;20047;-94
2022/02/15 07:21:43;;;;;;;18.67;17.77;;;6.90;75.70;;;;;;4956079;28;20027;-91
2022/02/15 07:24:10;;;;;;;18.17;17.37;;;6.90;75.70;;;;;;4959121;28;20055;-92
2022/02/15 07:26:36;;;;;;;18.63;17.77;;;7.00;75.80;;;;;;4956257;28;20486;-92
2022/02/15 07:29:02;;;;;;;19.13;18.20;;;7.00;75.70;;;;;;4955839;28;20054;-93
2022/02/15 07:31:28;;;;;;;18.60;17.73;;;7.00;75.70;;;;;;4962108;28;20513;-93
2022/02/15 07:33:54;;;;;;;18.17;17.27;;;7.10;75.70;;;;;;4979721;29;20047;-94
2022/02/15 07:36:20;;;;;;;18.83;17.90;;;7.10;75.70;;;;;;4970056;28;20036;-94
2022/02/15 07:38:46;;;;;;;18.80;17.90;;;7.10;75.70;;;;;;4956495;28;20035;-92
2022/02/15 07:41:12;;;;;;;18.27;17.48;;;7.10;75.70;;;;;;4957157;29;20046;-94
2022/02/15 07:43:38;;;;;;;19.40;18.50;;;7.10;75.70;;;;;;4958434;28;20497;-92
2022/02/15 07:46:06;;;;;;;18.97;18.07;;;7.10;75.70;;;;;;4960383;28;20039;-94
2022/02/15 07:48:34;;;;;;;19.13;18.23;;;7.10;75.70;;;;;;4975201;29;20308;-94
2022/02/15 07:51:01;;;;;;;19.03;17.67;;;7.20;75.80;;;;;;4961442;28;20046;-94
2022/02/15 07:53:27;;;;;;;18.38;17.38;;;7.20;75.80;;;;;;4961819;28;20047;-89
2022/02/15 07:55:53;;;;;;;18.88;17.98;;;7.30;75.80;;;;;;4970101;28;20039;-95
2022/02/15 07:58:19;;;;;;;19.00;18.10;;;7.30;75.70;;;;;;4965457;29;20026;-91
2022/02/15 08:00:45;;;;;;;18.30;17.40;;;7.30;75.70;;;;;;4958879;28;20050;-93
2022/02/15 08:03:11;;;;;;;18.77;17.88;;;7.30;75.70;;;;;;4955763;29;20454;-95
2022/02/15 08:05:41;;;;;;;17.95;17.15;;;7.30;75.60;;;;;;4958783;29;20046;-93
2022/02/15 08:08:07;;;;;;;19.50;18.60;;;7.40;75.70;;;;;;4951058;28;20048;-93
2022/02/15 08:10:33;;;;;;;19.08;18.17;;;7.40;75.60;;;;;;4946866;28;20031;-83
2022/02/15 08:13:01;;;;;;;19.23;18.33;;;7.40;75.70;;;;;;4956207;28;20054;-94
2022/02/15 08:15:30;;;;;;;18.13;17.33;;;7.80;75.40;;;;;;4948403;28;20052;-93
2022/02/15 08:17:57;;;;;;;19.17;18.27;;;8.40;74.10;;;;;;4958684;28;20394;-92
2022/02/15 08:20:23;;;;;;;18.15;17.35;;;8.90;72.70;;;;;;4949604;29;20026;-93
2022/02/15 08:22:50;;;;;;;19.15;18.25;;;9.40;72.40;;;;;;4955724;29;20038;-92
2022/02/15 08:25:18;;;;;;;19.85;18.95;;;9.80;70.80;;;;;;4955362;28;20024;-91
2022/02/15 08:27:44;;;;;;;19.60;18.60;;;10.10;70.30;;;;;;4954997;28;20027;-92
2022/02/15 08:30:12;;;;;;;19.63;18.73;;;10.40;70.10;;;;;;4955629;28;20054;-93
2022/02/15 08:32:38;;;;;;;21.70;20.60;;;10.50;69.80;;;;;;4956225;28;20039;-93
2022/02/15 08:35:05;;;;;;;1505.45;755.20;;;10.70;69.80;;;;;;4963553;29;20038;-94
2022/02/15 08:37:33;;;;;;;1999.90;999.90;;;10.90;69.60;;;;;;5106714;23;20051;-92
2022/02/15 08:40:00;;;;;;;1999.90;999.90;;;11.10;69.50;;;;;;5000377;28;20039;-92
2022/02/15 08:42:26;;;;;;;1999.90;999.90;;;11.30;69.10;;;;;;4990612;28;20027;-92
2022/02/15 08:44:55;;;;;;;1999.90;999.90;;;11.60;69.00;;;;;;4994509;28;20026;-93
2022/02/15 08:47:22;;;;;;;1999.90;999.90;;;11.80;68.80;;;;;;4978884;28;20808;-88
2022/02/15 08:49:51;;;;;;;1999.90;999.90;;;12.00;68.50;;;;;;4976376;28;20033;-88
2022/02/15 08:52:24;;;;;;;1999.90;999.90;;;12.20;68.40;;;;;;4967415;28;20416;-90
2022/02/15 08:54:50;;;;;;;1999.90;999.90;;;12.20;68.30;;;;;;4983398;28;20034;-89
2022/02/15 08:57:17;;;;;;;1999.90;999.90;;;12.00;68.70;;;;;;4970353;28;20042;-83
2022/02/15 08:59:43;;;;;;;1999.90;999.90;;;11.70;69.50;;;;;;4982064;28;20048;-84
2022/02/15 09:02:09;;;;;;;1999.90;999.90;;;11.40;70.50;;;;;;4976440;28;20371;-82
2022/02/15 09:04:36;;;;;;;1999.90;999.90;;;11.50;70.70;;;;;;4958544;28;20038;-81
2022/02/15 09:07:03;;;;;;;1999.90;999.90;;;11.50;70.70;;;;;;4975860;28;20402;-81
2022/02/15 09:09:29;;;;;;;1999.90;999.90;;;11.30;71.00;;;;;;4967537;28;20039;-83
2022/02/15 09:11:55;;;;;;;1999.90;999.90;;;11.10;71.50;;;;;;4980944;28;20026;-80
2022/02/15 09:14:21;;;;;;;1999.90;999.90;;;11.00;72.00;;;;;;4957122;28;20460;-80
2022/02/15 09:16:48;;;;;;;1999.90;999.90;;;10.90;72.20;;;;;;4967726;28;20039;-81
2022/02/15 09:19:14;;;;;;;1999.90;999.90;;;10.90;72.50;;;;;;4959498;28;20034;-87
2022/02/15 09:21:40;;;;;;;20.55;19.63;;;10.90;72.70;;;;;;4955667;28;20404;-89
2022/02/15 09:24:09;;;;;;;1999.90;999.90;;;11.10;72.70;;;;;;4980895;28;20042;-88
2022/02/15 09:26:35;;;;;;;21.88;20.88;;;11.20;72.30;;;;;;4980312;28;20030;-93
2022/02/15 09:29:01;;;;;;;1999.90;999.90;;;11.50;72.10;;;;;;4983479;28;20035;-88
2022/02/15 09:31:27;;;;;;;1999.90;999.90;;;11.60;71.70;;;;;;4975516;28;20039;-86
2022/02/15 09:33:53;;;;;;;1999.90;999.90;;;11.70;71.50;;;;;;4975926;28;20059;-89
2022/02/15 09:36:22;;;;;;;1999.90;999.90;;;11.70;71.60;;;;;;4980743;28;20031;-89
2022/02/15 09:38:49;;;;;;;1999.90;999.90;;;11.60;71.90;;;;;;4982573;28;20055;-92
2022/02/15 09:41:15;;;;;;;1999.90;999.90;;;11.50;72.20;;;;;;4977836;28;20034;-90
2022/02/15 09:43:41;;;;;;;1999.90;999.90;;;11.40;72.40;;;;;;4975523;28;20038;-89
2022/02/15 09:46:09;;;;;;;1999.90;999.90;;;11.40;72.70;;;;;;5038448;23;20047;-92
2022/02/15 09:48:36;;;;;;;1999.90;999.90;;;11.30;72.90;;;;;;5049185;23;20055;-92
2022/02/15 09:51:04;;;;;;;1999.90;999.90;;;11.30;73.10;;;;;;4972979;28;20051;-86
2022/02/15 09:53:30;;;;;;;1999.90;999.90;;;11.20;73.20;;;;;;4988623;28;20054;-91
2022/02/15 09:55:56;;;;;;;1999.90;999.90;;;11.20;73.30;;;;;;5004860;28;20050;-92
2022/02/15 09:58:23;;;;;;;1999.90;999.90;;;11.20;73.40;;;;;;4977016;28;20450;-89
2022/02/15 10:00:49;;;;;;;1999.90;999.90;;;11.20;73.40;;;;;;4972960;28;20034;-92
2022/02/15 10:03:15;;;;;;;1999.90;999.90;;;11.10;73.50;;;;;;4947162;28;20043;-90
2022/02/15 10:05:50;;;;;;;1999.90;999.90;;;11.10;73.60;;;;;;4962279;28;20043;-93
2022/02/15 10:08:29;;;;;;;1999.90;999.90;;;11.00;73.60;;;;;;4962057;28;20041;-92
2022/02/15 10:10:55;;;;;;;1999.90;999.90;;;11.00;73.80;;;;;;4974169;28;20046;-93
2022/02/15 10:13:21;;;;;;;1999.90;999.90;;;11.00;73.80;;;;;;4972820;28;20047;-87
2022/02/15 10:15:49;;;;;;;1999.90;999.90;;;11.00;73.80;;;;;;4968994;28;20039;-87
2022/02/15 10:18:20;;;;;;;1999.90;999.90;;;11.00;73.90;;;;;;4942291;28;20039;-90
2022/02/15 10:20:47;;;;;;;1999.90;999.90;;;11.00;73.90;;;;;;4971978;28;20493;-87
2022/02/15 10:23:24;;;;;;;1505.38;755.13;;;11.00;73.90;;;;;;4968339;28;20043;-88
2022/02/15 10:25:51;;;;;;;1505.53;755.10;;;11.00;73.90;;;;;;4972731;28;20019;-89
2022/02/15 10:28:21;;;;;;;1505.35;755.10;;;11.00;73.80;;;;;;4964083;28;20034;-88
2022/02/15 10:30:52;;;;;;;1999.90;999.90;;;11.10;73.80;;;;;;4975309;28;20051;-88
2022/02/15 10:33:20;;;;;;;1999.90;999.90;;;11.10;73.80;;;;;;4970901;28;20051;-82
2022/02/15 10:36:13;;;;;;;1505.28;755.03;;;11.10;73.80;;;;;;4965873;28;20030;-89
2022/02/15 10:38:40;;;;;;;1999.90;999.90;;;11.10;73.90;;;;;;4973769;28;20039;-93
2022/02/15 10:41:07;;;;;;;1505.40;755.15;;;11.10;73.90;;;;;;4978990;28;20034;-92
2022/02/15 10:43:54;;;;;;;1505.18;754.92;;;11.10;73.90;;;;;;4979744;28;20037;-91
2022/02/15 10:46:24;;;;;;;21.42;20.42;;;11.00;74.00;;;;;;4974443;28;20027;-90
2022/02/15 10:48:52;;;;;;;516.17;265.42;;;11.00;74.00;;;;;;4966488;28;20046;-93
2022/02/15 10:51:18;;;;;;;20.92;19.92;;;11.00;74.10;;;;;;4979106;28;20043;-93
2022/02/15 10:53:44;;;;;;;21.17;20.17;;;11.00;74.20;;;;;;4986321;28;20050;-89
2022/02/15 10:56:11;;;;;;;20.85;19.85;;;11.00;74.20;;;;;;4974711;28;20042;-83
2022/02/15 10:58:37;;;;;;;20.17;19.27;;;11.00;74.20;;;;;;4971129;28;20042;-84
2022/02/15 11:01:08;;;;;;;21.27;20.27;;;11.00;74.30;;;;;;4968389;28;20038;-84
2022/02/15 11:03:36;;;;;;;20.42;19.52;;;11.00;74.30;;;;;;4972342;28;20046;-83
2022/02/15 11:06:02;;;;;;;21.00;20.00;;;11.00;74.40;;;;;;4974563;28;20038;-89
2022/02/15 11:08:30;;;;;;;21.13;20.02;;;11.00;74.40;;;;;;4974150;28;20497;-88
2022/02/15 11:11:06;;;;;;;20.65;19.73;;;11.00;74.30;;;;;;4972895;28;20050;-90
2022/02/15 11:13:35;;;;;;;20.58;19.63;;;11.00;74.40;;;;;;4972272;28;20045;-93
2022/02/15 11:16:09;;;;;;;21.05;20.05;;;11.00;74.50;;;;;;4962504;28;20043;-91
2022/02/15 11:18:35;;;;;;;20.95;19.95;;;11.10;74.60;;;;;;4969153;28;20035;-91
2022/02/15 11:21:02;;;;;;;21.27;20.27;;;11.10;74.50;;;;;;4973356;28;20042;-90
2022/02/15 11:23:30;;;;;;;20.63;19.70;;;11.10;74.50;;;;;;4972371;28;20445;-92
2022/02/15 11:26:11;;;;;;;20.83;19.83;;;11.20;74.50;;;;;;4972521;28;20046;-90
2022/02/15 11:28:55;;;;;;;21.00;19.92;;;11.20;74.50;;;;;;4965989;28;20034;-90
2022/02/15 11:31:29;;;;;;;20.40;19.50;;;11.30;74.40;;;;;;4973444;28;20481;-90
2022/02/15 11:33:55;;;;;;;20.42;19.50;;;11.40;74.40;;;;;;4975400;28;20043;-88
2022/02/15 11:36:23;;;;;;;20.40;19.50;;;11.50;74.30;;;;;;4960985;28;20027;-88
2022/02/15 11:38:56;;;;;;;22.10;20.58;;;11.50;74.20;;;;;;4973216;28;20042;-89
2022/02/15 11:41:23;;;;;;;21.10;20.10;;;11.60;74.20;;;;;;4984291;28;20389;-86
2022/02/15 11:43:54;;;;;;;21.08;20.08;;;11.70;74.20;;;;;;4936751;28;20124;-82
2022/02/15 11:46:30;;;;;;;22.23;21.23;;;11.80;74.20;;;;;;4970192;28;20035;-84
2022/02/15 11:49:10;;;;;;;22.45;21.35;;;11.90;74.00;;;;;;4964980;28;20051;-85
2022/02/15 11:51:37;;;;;;;22.70;21.60;;;12.10;73.90;;;;;;4973260;28;20030;-87
2022/02/15 11:54:03;;;;;;;22.63;21.55;;;12.20;73.70;;;;;;4955836;28;20059;-85
2022/02/15 11:56:29;;;;;;;22.05;21.05;;;12.30;73.60;;;;;;4966727;28;20035;-89
2022/02/15 11:58:57;;;;;;;22.05;21.05;;;12.40;73.50;;;;;;4986525;28;20425;-86
2022/02/15 12:01:28;;;;;;;1999.90;999.90;;;12.50;73.50;;;;;;4971907;28;20042;-83
2022/02/15 12:03:54;;;;;;;1999.90;999.90;;;12.50;73.40;;;;;;4970261;28;20039;-85
2022/02/15 12:06:21;;;;;;;1999.90;999.90;;;12.60;73.50;;;;;;4971745;28;20393;-84
2022/02/15 12:08:55;;;;;;;1999.90;999.90;;;12.60;73.60;;;;;;4959791;28;20044;-84
2022/02/15 12:11:39;;;;;;;1999.90;999.90;;;12.60;73.60;;;;;;4962696;28;20027;-85
2022/02/15 12:14:13;;;;;;;1999.90;999.90;;;12.60;73.70;;;;;;4962397;28;20035;-84
2022/02/15 12:16:49;;;;;;;1999.90;999.90;;;12.60;73.80;;;;;;4959973;28;20057;-84
2022/02/15 12:19:26;;;;;;;1999.90;999.90;;;12.60;73.80;;;;;;4961393;28;20030;-85
2022/02/15 12:21:54;;;;;;;1999.90;999.90;;;12.60;73.80;;;;;;4975641;28;20035;-85
2022/02/15 12:24:23;;;;;;;1999.90;999.90;;;12.60;73.80;;;;;;4955380;28;20039;-86
2022/02/15 12:26:50;;;;;;;1999.90;999.90;;;12.60;73.80;;;;;;4960702;28;20045;-85
2022/02/15 12:29:16;;;;;;;1999.90;999.90;;;12.60;73.80;;;;;;4961951;28;20386;-85
2022/02/15 12:31:42;;;;;;;1999.90;999.90;;;12.60;73.90;;;;;;4962538;28;20040;-85
2022/02/15 12:34:12;;;;;;;1999.90;999.90;;;12.60;74.00;;;;;;4987363;28;20404;-84
2022/02/15 12:36:38;;;;;;;1999.90;999.90;;;12.60;74.00;;;;;;4953738;28;20042;-88